WXM80 ListenWXM80 Stop

You find our weather info also at:

UK Metoffice

WeatherCloud

Weather Underground

Northeastern Weather Network

AWEKAS

Citizen Weather Observer Program (CWOP)

HAMweather, WeatherForYou, PWS Weather


Weather Underground History page Text

Daily Summary for April 13, 2017 Units:  Both    English   Metric
« Previous Day
Next Day »
Daily Weekly Monthly Yearly Custom
  High: Low: Average:
Temperature: 64.0 °F /  17.8 °C 43.7 °F /  6.5 °C 53.7 °F /  12.1 °C
Dew Point: 49.5 °F /  9.7 °C 35.5 °F /  1.9 °C 40.1 °F /  4.5 °C
Humidity: 86 % 37 % 62 %
Wind Speed: 7.6 mph /  12.2 km/h - 2.5 mph /  4 km/h
Wind Gust: 11.5 mph /  18.5 km/h - -
Wind:- - SW
Pressure: 30.34 in /  1027.3 hPa 30.21 in /  1022.9 hPa -
Precipitation: 0.00 in /  0 mm    
Historical Graphs
 
 
Tabular Data for April 13, 2017
Time Temperature Dew Point Pressure Wind Wind Speed Wind Gust Humidity Rainfall Rate (Hourly)
00:01 54.2 °F /  12.3 °C 49.5 °F /  9.7 °C 30.21 in /  1022.9 hPa NNW 4.8 mph /  7.7 km/h 6.9 mph /  11.1 km/h 84 % 0.00 in /  0 mm
00:06 54.2 °F /  12.3 °C 49.1 °F /  9.5 °C 30.22 in /  1023.2 hPa North 3.1 mph /  5 km/h 8.1 mph /  13 km/h 83 % 0.00 in /  0 mm
00:11 54.2 °F /  12.3 °C 49.1 °F /  9.5 °C 30.22 in /  1023.2 hPa NE 4.5 mph /  7.2 km/h 8.1 mph /  13 km/h 83 % 0.00 in /  0 mm
00:16 54.1 °F /  12.3 °C 48.7 °F /  9.3 °C 30.22 in /  1023.2 hPa North 3.6 mph /  5.8 km/h 8.1 mph /  13 km/h 82 % 0.00 in /  0 mm
00:21 54.0 °F /  12.2 °C 48.0 °F /  8.9 °C 30.22 in /  1023.2 hPa NNE 6.8 mph /  10.9 km/h 11.5 mph /  18.5 km/h 80 % 0.00 in /  0 mm
00:26 54.0 °F /  12.2 °C 47.6 °F /  8.7 °C 30.23 in /  1023.6 hPa North 5.6 mph /  9 km/h 11.5 mph /  18.5 km/h 79 % 0.00 in /  0 mm
00:31 54.1 °F /  12.3 °C 47.4 °F /  8.6 °C 30.23 in /  1023.6 hPa North 6.7 mph /  10.8 km/h 9.2 mph /  14.8 km/h 78 % 0.00 in /  0 mm
00:36 54.1 °F /  12.3 °C 47.4 °F /  8.6 °C 30.24 in /  1023.9 hPa North 2.4 mph /  3.9 km/h 3.5 mph /  5.6 km/h 78 % 0.00 in /  0 mm
00:41 53.9 °F /  12.2 °C 46.9 °F /  8.3 °C 30.24 in /  1023.9 hPa NNE 5.3 mph /  8.5 km/h 9.2 mph /  14.8 km/h 77 % 0.00 in /  0 mm
00:46 53.7 °F /  12.1 °C 46.3 °F /  7.9 °C 30.24 in /  1023.9 hPa NNE 1.8 mph /  2.9 km/h 5.8 mph /  9.3 km/h 76 % 0.00 in /  0 mm
00:51 53.5 °F /  11.9 °C 46.1 °F /  7.8 °C 30.25 in /  1024.3 hPa NW 0.3 mph /  0.5 km/h 3.5 mph /  5.6 km/h 76 % 0.00 in /  0 mm
00:56 53.3 °F /  11.8 °C 45.9 °F /  7.7 °C 30.25 in /  1024.3 hPa Calm   1.0 mph /  1.6 km/h 76 % 0.00 in /  0 mm
01:01 53.1 °F /  11.7 °C 45.7 °F /  7.6 °C 30.25 in /  1024.3 hPa North 2.3 mph /  3.7 km/h 5.8 mph /  9.3 km/h 76 % 0.00 in /  0 mm
01:06 52.8 °F /  11.6 °C 45.4 °F /  7.4 °C 30.25 in /  1024.3 hPa NE 1.0 mph /  1.6 km/h 2.3 mph /  3.7 km/h 76 % 0.00 in /  0 mm
01:11 52.5 °F /  11.4 °C 44.8 °F /  7.1 °C 30.25 in /  1024.3 hPa NE 0.8 mph /  1.3 km/h 3.5 mph /  5.6 km/h 75 % 0.00 in /  0 mm
01:16 52.1 °F /  11.2 °C 44.4 °F /  6.9 °C 30.25 in /  1024.3 hPa SSE 1.5 mph /  2.4 km/h 4.0 mph /  6.4 km/h 75 % 0.00 in /  0 mm
01:21 51.8 °F /  11 °C 44.5 °F /  6.9 °C 30.25 in /  1024.3 hPa NW 1.5 mph /  2.4 km/h 8.0 mph /  12.9 km/h 76 % 0.00 in /  0 mm
01:27 51.4 °F /  10.8 °C 43.7 °F /  6.5 °C 30.25 in /  1024.3 hPa NNW 4.1 mph /  6.6 km/h 6.0 mph /  9.7 km/h 75 % 0.00 in /  0 mm
01:32 51.1 °F /  10.6 °C 43.8 °F /  6.6 °C 30.25 in /  1024.3 hPa North 5.4 mph /  8.7 km/h 10.4 mph /  16.7 km/h 76 % 0.00 in /  0 mm
01:37 50.9 °F /  10.5 °C 43.6 °F /  6.4 °C 30.25 in /  1024.3 hPa North 3.2 mph /  5.1 km/h 5.0 mph /  8 km/h 76 % 0.00 in /  0 mm
01:42 50.7 °F /  10.4 °C 43.4 °F /  6.3 °C 30.25 in /  1024.3 hPa North 3.1 mph /  5 km/h 11.5 mph /  18.5 km/h 76 % 0.00 in /  0 mm
01:47 50.6 °F /  10.3 °C 43.3 °F /  6.3 °C 30.25 in /  1024.3 hPa NNE 5.3 mph /  8.5 km/h 8.1 mph /  13 km/h 76 % 0.00 in /  0 mm
01:52 50.5 °F /  10.3 °C 43.2 °F /  6.2 °C 30.25 in /  1024.3 hPa NNE 3.4 mph /  5.5 km/h 5.8 mph /  9.3 km/h 76 % 0.00 in /  0 mm
01:57 50.4 °F /  10.2 °C 43.1 °F /  6.2 °C 30.25 in /  1024.3 hPa NE 7.6 mph /  12.2 km/h 11.5 mph /  18.5 km/h 76 % 0.00 in /  0 mm
02:02 50.3 °F /  10.2 °C 43.0 °F /  6.1 °C 30.25 in /  1024.3 hPa NNW 6.0 mph /  9.7 km/h 8.1 mph /  13 km/h 76 % 0.00 in /  0 mm
02:07 50.2 °F /  10.1 °C 42.9 °F /  6.1 °C 30.25 in /  1024.3 hPa NNE 6.5 mph /  10.5 km/h 8.1 mph /  13 km/h 76 % 0.00 in /  0 mm
02:12 50.1 °F /  10.1 °C 42.8 °F /  6 °C 30.25 in /  1024.3 hPa NNE 5.2 mph /  8.4 km/h 6.9 mph /  11.1 km/h 76 % 0.00 in /  0 mm
02:17 50.0 °F /  10 °C 42.7 °F /  5.9 °C 30.25 in /  1024.3 hPa NNE 3.5 mph /  5.6 km/h 8.1 mph /  13 km/h 76 % 0.00 in /  0 mm
02:22 49.9 °F /  9.9 °C 42.6 °F /  5.9 °C 30.25 in /  1024.3 hPa North 3.5 mph /  5.6 km/h 5.8 mph /  9.3 km/h 76 % 0.00 in /  0 mm
02:27 49.7 °F /  9.8 °C 42.4 °F /  5.8 °C 30.25 in /  1024.3 hPa North 2.3 mph /  3.7 km/h 6.9 mph /  11.1 km/h 76 % 0.00 in /  0 mm
02:32 49.6 °F /  9.8 °C 42.7 °F /  5.9 °C 30.25 in /  1024.3 hPa NNE 4.7 mph /  7.6 km/h 5.8 mph /  9.3 km/h 77 % 0.00 in /  0 mm
02:37 49.4 °F /  9.7 °C 42.5 °F /  5.8 °C 30.25 in /  1024.3 hPa North 3.2 mph /  5.1 km/h 8.1 mph /  13 km/h 77 % 0.00 in /  0 mm
02:39 49.3 °F /  9.6 °C 42.4 °F /  5.8 °C 30.25 in /  1024.3 hPa North 2.8 mph /  4.5 km/h 6.9 mph /  11.1 km/h 77 % 0.00 in /  0 mm
02:44 49.2 °F /  9.6 °C 42.3 °F /  5.7 °C 30.25 in /  1024.3 hPa NNE 4.9 mph /  7.9 km/h 6.9 mph /  11.1 km/h 77 % 0.00 in /  0 mm
02:49 49.1 °F /  9.5 °C 41.9 °F /  5.5 °C 30.25 in /  1024.3 hPa North 3.6 mph /  5.8 km/h 6.9 mph /  11.1 km/h 76 % 0.00 in /  0 mm
02:54 49.0 °F /  9.4 °C 42.1 °F /  5.6 °C 30.25 in /  1024.3 hPa NNE 4.2 mph /  6.8 km/h 5.8 mph /  9.3 km/h 77 % 0.00 in /  0 mm
02:56 48.9 °F /  9.4 °C 42.0 °F /  5.6 °C 30.25 in /  1024.3 hPa NNE 3.8 mph /  6.1 km/h 5.8 mph /  9.3 km/h 77 % 0.00 in /  0 mm
03:01 48.9 °F /  9.4 °C 42.0 °F /  5.6 °C 30.26 in /  1024.6 hPa NNE 4.7 mph /  7.6 km/h 6.0 mph /  9.7 km/h 77 % 0.00 in /  0 mm
03:06 48.7 °F /  9.3 °C 42.1 °F /  5.6 °C 30.26 in /  1024.6 hPa NNE 5.4 mph /  8.7 km/h 8.1 mph /  13 km/h 78 % 0.00 in /  0 mm
03:11 48.6 °F /  9.2 °C 42.0 °F /  5.6 °C 30.26 in /  1024.6 hPa NNE 3.8 mph /  6.1 km/h 6.9 mph /  11.1 km/h 78 % 0.00 in /  0 mm
03:16 48.5 °F /  9.2 °C 42.0 °F /  5.6 °C 30.26 in /  1024.6 hPa North 3.6 mph /  5.8 km/h 5.8 mph /  9.3 km/h 78 % 0.00 in /  0 mm
03:21 48.4 °F /  9.1 °C 41.9 °F /  5.5 °C 30.26 in /  1024.6 hPa North 3.3 mph /  5.3 km/h 8.1 mph /  13 km/h 78 % 0.00 in /  0 mm
03:26 48.3 °F /  9.1 °C 41.8 °F /  5.4 °C 30.26 in /  1024.6 hPa NNE 1.9 mph /  3.1 km/h 3.5 mph /  5.6 km/h 78 % 0.00 in /  0 mm
03:31 48.1 °F /  8.9 °C 41.9 °F /  5.5 °C 30.26 in /  1024.6 hPa NNW 2.0 mph /  3.2 km/h 4.6 mph /  7.4 km/h 79 % 0.00 in /  0 mm
03:36 47.9 °F /  8.8 °C 41.7 °F /  5.4 °C 30.26 in /  1024.6 hPa North 2.6 mph /  4.2 km/h 6.0 mph /  9.7 km/h 79 % 0.00 in /  0 mm
03:41 47.8 °F /  8.8 °C 41.6 °F /  5.3 °C 30.26 in /  1024.6 hPa NNE 2.0 mph /  3.2 km/h 4.6 mph /  7.4 km/h 79 % 0.00 in /  0 mm
03:46 47.7 °F /  8.7 °C 41.5 °F /  5.3 °C 30.26 in /  1024.6 hPa North 1.2 mph /  1.9 km/h 2.3 mph /  3.7 km/h 79 % 0.00 in /  0 mm
03:51 47.6 °F /  8.7 °C 41.4 °F /  5.2 °C 30.26 in /  1024.6 hPa Calm   2.3 mph /  3.7 km/h 79 % 0.00 in /  0 mm
03:56 47.5 °F /  8.6 °C 41.6 °F /  5.3 °C 30.26 in /  1024.6 hPa North 0.3 mph /  0.5 km/h   80 % 0.00 in /  0 mm
04:01 47.4 °F /  8.6 °C 41.9 °F /  5.5 °C 30.26 in /  1024.6 hPa North 0.1 mph /  0.2 km/h 2.3 mph /  3.7 km/h 81 % 0.00 in /  0 mm
04:06 47.2 °F /  8.4 °C 41.7 °F /  5.4 °C 30.26 in /  1024.6 hPa North 0.2 mph /  0.3 km/h 1.2 mph /  1.9 km/h 81 % 0.00 in /  0 mm
04:11 47.0 °F /  8.3 °C 41.5 °F /  5.3 °C 30.26 in /  1024.6 hPa Calm     81 % 0.00 in /  0 mm
04:16 46.9 °F /  8.3 °C 41.7 °F /  5.4 °C 30.26 in /  1024.6 hPa North 0.1 mph /  0.2 km/h 1.2 mph /  1.9 km/h 82 % 0.00 in /  0 mm
04:21 46.7 °F /  8.2 °C 41.5 °F /  5.3 °C 30.26 in /  1024.6 hPa Calm     82 % 0.00 in /  0 mm
04:26 46.4 °F /  8 °C 41.5 °F /  5.3 °C 30.26 in /  1024.6 hPa Calm     83 % 0.00 in /  0 mm
04:31 46.2 °F /  7.9 °C 41.3 °F /  5.2 °C 30.26 in /  1024.6 hPa Calm   1.2 mph /  1.9 km/h 83 % 0.00 in /  0 mm
04:36 46.0 °F /  7.8 °C 41.1 °F /  5.1 °C 30.27 in /  1024.9 hPa Calm     83 % 0.00 in /  0 mm
04:41 45.8 °F /  7.7 °C 40.9 °F /  4.9 °C 30.27 in /  1024.9 hPa Calm     83 % 0.00 in /  0 mm
04:46 45.6 °F /  7.6 °C 41.0 °F /  5 °C 30.27 in /  1024.9 hPa North 0.3 mph /  0.5 km/h 2.3 mph /  3.7 km/h 84 % 0.00 in /  0 mm
04:51 45.5 °F /  7.5 °C 40.6 °F /  4.8 °C 30.27 in /  1024.9 hPa Calm     83 % 0.00 in /  0 mm
04:56 45.3 °F /  7.4 °C 40.7 °F /  4.8 °C 30.27 in /  1024.9 hPa NNW 1.1 mph /  1.8 km/h 3.5 mph /  5.6 km/h 84 % 0.00 in /  0 mm
04:57 45.2 °F /  7.3 °C 40.7 °F /  4.8 °C 30.27 in /  1024.9 hPa NNW 2.1 mph /  3.4 km/h 3.5 mph /  5.6 km/h 84 % 0.00 in /  0 mm
05:02 45.1 °F /  7.3 °C 40.6 °F /  4.8 °C 30.27 in /  1024.9 hPa Calm   1.2 mph /  1.9 km/h 84 % 0.00 in /  0 mm
05:07 44.9 °F /  7.2 °C 40.4 °F /  4.7 °C 30.28 in /  1025.3 hPa Calm     84 % 0.00 in /  0 mm
05:12 44.8 °F /  7.1 °C 40.6 °F /  4.8 °C 30.28 in /  1025.3 hPa Calm     85 % 0.00 in /  0 mm
05:17 44.6 °F /  7 °C 40.4 °F /  4.7 °C 30.28 in /  1025.3 hPa NNW 0.2 mph /  0.3 km/h 1.0 mph /  1.6 km/h 85 % 0.00 in /  0 mm
05:22 44.5 °F /  6.9 °C 40.3 °F /  4.6 °C 30.28 in /  1025.3 hPa Calm   1.2 mph /  1.9 km/h 85 % 0.00 in /  0 mm
05:27 44.3 °F /  6.8 °C 40.4 °F /  4.7 °C 30.28 in /  1025.3 hPa NNW 0.4 mph /  0.6 km/h 1.2 mph /  1.9 km/h 86 % 0.00 in /  0 mm
05:32 44.2 °F /  6.8 °C 40.3 °F /  4.6 °C 30.28 in /  1025.3 hPa NW 0.1 mph /  0.2 km/h 1.2 mph /  1.9 km/h 86 % 0.00 in /  0 mm
05:37 44.0 °F /  6.7 °C 39.8 °F /  4.3 °C 30.28 in /  1025.3 hPa WSW 0.2 mph /  0.3 km/h 2.0 mph /  3.2 km/h 85 % 0.00 in /  0 mm
05:42 43.9 °F /  6.6 °C 39.7 °F /  4.3 °C 30.28 in /  1025.3 hPa WNW 0.2 mph /  0.3 km/h 1.2 mph /  1.9 km/h 85 % 0.00 in /  0 mm
05:47 43.8 °F /  6.6 °C 39.3 °F /  4.1 °C 30.28 in /  1025.3 hPa WNW 1.3 mph /  2.1 km/h 3.5 mph /  5.6 km/h 84 % 0.00 in /  0 mm
05:52 43.7 °F /  6.5 °C 38.9 °F /  3.8 °C 30.28 in /  1025.3 hPa WNW 1.0 mph /  1.6 km/h 3.5 mph /  5.6 km/h 83 % 0.00 in /  0 mm
05:57 43.7 °F /  6.5 °C 38.3 °F /  3.5 °C 30.28 in /  1025.3 hPa WNW 0.8 mph /  1.3 km/h 2.3 mph /  3.7 km/h 81 % 0.00 in /  0 mm
06:03 43.8 °F /  6.6 °C 38.3 °F /  3.5 °C 30.28 in /  1025.3 hPa WNW 2.1 mph /  3.4 km/h 3.5 mph /  5.6 km/h 81 % 0.00 in /  0 mm
06:08 44.0 °F /  6.7 °C 38.2 °F /  3.4 °C 30.28 in /  1025.3 hPa NW 2.4 mph /  3.9 km/h 5.8 mph /  9.3 km/h 80 % 0.00 in /  0 mm
06:13 44.2 °F /  6.8 °C 38.1 °F /  3.4 °C 30.28 in /  1025.3 hPa West 2.1 mph /  3.4 km/h 4.0 mph /  6.4 km/h 79 % 0.00 in /  0 mm
06:18 44.3 °F /  6.8 °C 37.9 °F /  3.3 °C 30.28 in /  1025.3 hPa WNW 2.9 mph /  4.7 km/h 7.0 mph /  11.3 km/h 78 % 0.00 in /  0 mm
06:23 44.6 °F /  7 °C 37.8 °F /  3.2 °C 30.29 in /  1025.6 hPa WNW 1.7 mph /  2.7 km/h 3.5 mph /  5.6 km/h 77 % 0.00 in /  0 mm
06:28 44.8 °F /  7.1 °C 37.7 °F /  3.2 °C 30.29 in /  1025.6 hPa West 3.3 mph /  5.3 km/h 3.5 mph /  5.6 km/h 76 % 0.00 in /  0 mm
06:33 45.0 °F /  7.2 °C 37.9 °F /  3.3 °C 30.29 in /  1025.6 hPa West 4.1 mph /  6.6 km/h 6.9 mph /  11.1 km/h 76 % 0.00 in /  0 mm
06:38 45.2 °F /  7.3 °C 37.7 °F /  3.2 °C 30.30 in /  1026 hPa WNW 1.8 mph /  2.9 km/h 4.6 mph /  7.4 km/h 75 % 0.00 in /  0 mm
06:43 45.4 °F /  7.4 °C 37.9 °F /  3.3 °C 30.29 in /  1025.6 hPa WNW 1.4 mph /  2.3 km/h 3.5 mph /  5.6 km/h 75 % 0.00 in /  0 mm
06:48 45.5 °F /  7.5 °C 38.0 °F /  3.3 °C 30.30 in /  1026 hPa West 1.4 mph /  2.3 km/h 3.5 mph /  5.6 km/h 75 % 0.00 in /  0 mm
06:53 45.8 °F /  7.7 °C 38.0 °F /  3.3 °C 30.30 in /  1026 hPa WSW 2.8 mph /  4.5 km/h 3.5 mph /  5.6 km/h 74 % 0.00 in /  0 mm
06:58 46.0 °F /  7.8 °C 38.2 °F /  3.4 °C 30.30 in /  1026 hPa WNW 2.7 mph /  4.3 km/h 3.5 mph /  5.6 km/h 74 % 0.00 in /  0 mm
07:03 46.3 °F /  7.9 °C 38.1 °F /  3.4 °C 30.30 in /  1026 hPa WSW 3.9 mph /  6.3 km/h 6.0 mph /  9.7 km/h 73 % 0.00 in /  0 mm
07:08 46.8 °F /  8.2 °C 38.6 °F /  3.7 °C 30.31 in /  1026.3 hPa West 3.4 mph /  5.5 km/h 6.9 mph /  11.1 km/h 73 % 0.00 in /  0 mm
07:13 47.0 °F /  8.3 °C 38.1 °F /  3.4 °C 30.30 in /  1026 hPa West 2.3 mph /  3.7 km/h 6.9 mph /  11.1 km/h 71 % 0.00 in /  0 mm
07:18 47.4 °F /  8.6 °C 38.5 °F /  3.6 °C 30.31 in /  1026.3 hPa WNW 2.4 mph /  3.9 km/h 6.9 mph /  11.1 km/h 71 % 0.00 in /  0 mm
07:23 47.7 °F /  8.7 °C 38.4 °F /  3.6 °C 30.31 in /  1026.3 hPa WNW 6.3 mph /  10.1 km/h 9.2 mph /  14.8 km/h 70 % 0.00 in /  0 mm
07:28 48.0 °F /  8.9 °C 38.7 °F /  3.7 °C 30.31 in /  1026.3 hPa WNW 3.5 mph /  5.6 km/h 9.2 mph /  14.8 km/h 70 % 0.00 in /  0 mm
07:33 48.2 °F /  9 °C 38.9 °F /  3.8 °C 30.31 in /  1026.3 hPa WNW 3.8 mph /  6.1 km/h 8.1 mph /  13 km/h 70 % 0.00 in /  0 mm
07:38 48.5 °F /  9.2 °C 39.5 °F /  4.2 °C 30.31 in /  1026.3 hPa WNW 3.7 mph /  6 km/h 9.2 mph /  14.8 km/h 71 % 0.00 in /  0 mm
07:43 48.7 °F /  9.3 °C 39.4 °F /  4.1 °C 30.31 in /  1026.3 hPa WNW 1.6 mph /  2.6 km/h 3.5 mph /  5.6 km/h 70 % 0.00 in /  0 mm
07:48 48.9 °F /  9.4 °C 39.5 °F /  4.2 °C 30.32 in /  1026.6 hPa WNW 1.5 mph /  2.4 km/h 4.0 mph /  6.4 km/h 70 % 0.00 in /  0 mm
07:53 49.1 °F /  9.5 °C 39.7 °F /  4.3 °C 30.32 in /  1026.6 hPa NW 2.1 mph /  3.4 km/h 3.5 mph /  5.6 km/h 70 % 0.00 in /  0 mm
07:58 49.4 °F /  9.7 °C 40.0 °F /  4.4 °C 30.32 in /  1026.6 hPa NW 3.7 mph /  6 km/h 5.8 mph /  9.3 km/h 70 % 0.00 in /  0 mm
08:04 49.4 °F /  9.7 °C 40.0 °F /  4.4 °C 30.32 in /  1026.6 hPa WNW 3.7 mph /  6 km/h 5.8 mph /  9.3 km/h 70 % 0.00 in /  0 mm
08:09 49.5 °F /  9.7 °C 40.1 °F /  4.5 °C 30.32 in /  1026.6 hPa NW 3.6 mph /  5.8 km/h 6.9 mph /  11.1 km/h 70 % 0.00 in /  0 mm
08:14 49.4 °F /  9.7 °C 40.0 °F /  4.4 °C 30.32 in /  1026.6 hPa WNW 2.4 mph /  3.9 km/h 6.9 mph /  11.1 km/h 70 % 0.00 in /  0 mm
08:19 49.4 °F /  9.7 °C 40.4 °F /  4.7 °C 30.32 in /  1026.6 hPa NW 4.9 mph /  7.9 km/h 7.0 mph /  11.3 km/h 71 % 0.00 in /  0 mm
08:24 49.3 °F /  9.6 °C 39.9 °F /  4.4 °C 30.32 in /  1026.6 hPa NW 6.0 mph /  9.7 km/h 8.1 mph /  13 km/h 70 % 0.00 in /  0 mm
08:29 49.2 °F /  9.6 °C 39.8 °F /  4.3 °C 30.31 in /  1026.3 hPa NW 2.5 mph /  4 km/h 5.8 mph /  9.3 km/h 70 % 0.00 in /  0 mm
08:34 49.2 °F /  9.6 °C 39.8 °F /  4.3 °C 30.32 in /  1026.6 hPa NW 2.6 mph /  4.2 km/h 4.0 mph /  6.4 km/h 70 % 0.00 in /  0 mm
08:39 49.3 °F /  9.6 °C 39.9 °F /  4.4 °C 30.32 in /  1026.6 hPa NW 2.8 mph /  4.5 km/h 9.2 mph /  14.8 km/h 70 % 0.00 in /  0 mm
08:44 49.4 °F /  9.7 °C 40.7 °F /  4.8 °C 30.32 in /  1026.6 hPa NW 3.1 mph /  5 km/h 6.9 mph /  11.1 km/h 72 % 0.00 in /  0 mm
08:49 49.7 °F /  9.8 °C 41.0 °F /  5 °C 30.32 in /  1026.6 hPa West 2.5 mph /  4 km/h 5.0 mph /  8 km/h 72 % 0.00 in /  0 mm
08:54 50.0 °F /  10 °C 40.6 °F /  4.8 °C 30.32 in /  1026.6 hPa WNW 3.8 mph /  6.1 km/h 5.8 mph /  9.3 km/h 70 % 0.00 in /  0 mm
08:59 50.1 °F /  10.1 °C 40.3 °F /  4.6 °C 30.32 in /  1026.6 hPa NW 3.7 mph /  6 km/h 8.1 mph /  13 km/h 69 % 0.00 in /  0 mm
09:04 50.3 °F /  10.2 °C 40.1 °F /  4.5 °C 30.32 in /  1026.6 hPa NNW 4.1 mph /  6.6 km/h 9.0 mph /  14.5 km/h 68 % 0.00 in /  0 mm
09:09 50.5 °F /  10.3 °C 39.9 °F /  4.4 °C 30.32 in /  1026.6 hPa North 3.4 mph /  5.5 km/h 8.1 mph /  13 km/h 67 % 0.00 in /  0 mm
09:14 50.9 °F /  10.5 °C 41.1 °F /  5.1 °C 30.31 in /  1026.3 hPa NW 3.4 mph /  5.5 km/h 8.1 mph /  13 km/h 69 % 0.00 in /  0 mm
09:19 51.2 °F /  10.7 °C 41.0 °F /  5 °C 30.32 in /  1026.6 hPa NW 2.4 mph /  3.9 km/h 5.0 mph /  8 km/h 68 % 0.00 in /  0 mm
09:24 51.4 °F /  10.8 °C 40.4 °F /  4.7 °C 30.32 in /  1026.6 hPa NNW 3.0 mph /  4.8 km/h 4.6 mph /  7.4 km/h 66 % 0.00 in /  0 mm
09:29 51.5 °F /  10.8 °C 40.9 °F /  4.9 °C 30.32 in /  1026.6 hPa North 2.5 mph /  4 km/h 3.5 mph /  5.6 km/h 67 % 0.00 in /  0 mm
09:34 51.6 °F /  10.9 °C 40.6 °F /  4.8 °C 30.32 in /  1026.6 hPa NW 4.5 mph /  7.2 km/h 5.8 mph /  9.3 km/h 66 % 0.00 in /  0 mm
09:36 51.7 °F /  10.9 °C 41.5 °F /  5.3 °C 30.32 in /  1026.6 hPa NW 2.2 mph /  3.5 km/h 4.6 mph /  7.4 km/h 68 % 0.00 in /  0 mm
09:41 51.9 °F /  11.1 °C 40.9 °F /  4.9 °C 30.32 in /  1026.6 hPa NW 2.3 mph /  3.7 km/h 6.9 mph /  11.1 km/h 66 % 0.00 in /  0 mm
09:46 51.9 °F /  11.1 °C 40.9 °F /  4.9 °C 30.32 in /  1026.6 hPa NNW 2.9 mph /  4.7 km/h 8.1 mph /  13 km/h 66 % 0.00 in /  0 mm
09:51 52.1 °F /  11.2 °C 41.1 °F /  5.1 °C 30.32 in /  1026.6 hPa NNW 4.2 mph /  6.8 km/h 5.8 mph /  9.3 km/h 66 % 0.00 in /  0 mm
09:56 52.2 °F /  11.2 °C 41.6 °F /  5.3 °C 30.32 in /  1026.6 hPa North 3.8 mph /  6.1 km/h 6.9 mph /  11.1 km/h 67 % 0.00 in /  0 mm
10:01 52.2 °F /  11.2 °C 41.2 °F /  5.1 °C 30.32 in /  1026.6 hPa NNW 1.1 mph /  1.8 km/h 3.5 mph /  5.6 km/h 66 % 0.00 in /  0 mm
10:06 52.2 °F /  11.2 °C 40.8 °F /  4.9 °C 30.33 in /  1027 hPa NW 2.5 mph /  4 km/h 4.6 mph /  7.4 km/h 65 % 0.00 in /  0 mm
10:12 52.1 °F /  11.2 °C 40.7 °F /  4.8 °C 30.32 in /  1026.6 hPa WNW 4.1 mph /  6.6 km/h 6.9 mph /  11.1 km/h 65 % 0.00 in /  0 mm
10:17 51.9 °F /  11.1 °C 40.5 °F /  4.7 °C 30.32 in /  1026.6 hPa NW 2.5 mph /  4 km/h 5.8 mph /  9.3 km/h 65 % 0.00 in /  0 mm
10:22 52.0 °F /  11.1 °C 41.0 °F /  5 °C 30.32 in /  1026.6 hPa NW 1.0 mph /  1.6 km/h 5.8 mph /  9.3 km/h 66 % 0.00 in /  0 mm
10:27 52.1 °F /  11.2 °C 40.7 °F /  4.8 °C 30.32 in /  1026.6 hPa WNW 2.0 mph /  3.2 km/h 3.5 mph /  5.6 km/h 65 % 0.00 in /  0 mm
10:32 52.2 °F /  11.2 °C 39.6 °F /  4.2 °C 30.32 in /  1026.6 hPa NW 2.6 mph /  4.2 km/h 4.6 mph /  7.4 km/h 62 % 0.00 in /  0 mm
10:37 52.3 °F /  11.3 °C 39.2 °F /  4 °C 30.33 in /  1027 hPa NW 3.2 mph /  5.1 km/h 4.6 mph /  7.4 km/h 61 % 0.00 in /  0 mm
10:42 52.3 °F /  11.3 °C 38.8 °F /  3.8 °C 30.32 in /  1026.6 hPa WNW 3.2 mph /  5.1 km/h 6.9 mph /  11.1 km/h 60 % 0.00 in /  0 mm
10:47 52.3 °F /  11.3 °C 39.2 °F /  4 °C 30.32 in /  1026.6 hPa North 3.4 mph /  5.5 km/h 5.8 mph /  9.3 km/h 61 % 0.00 in /  0 mm
10:52 52.6 °F /  11.4 °C 40.4 °F /  4.7 °C 30.32 in /  1026.6 hPa NW 2.2 mph /  3.5 km/h 5.0 mph /  8 km/h 63 % 0.00 in /  0 mm
10:57 52.9 °F /  11.6 °C 39.8 °F /  4.3 °C 30.32 in /  1026.6 hPa WNW 2.8 mph /  4.5 km/h 4.6 mph /  7.4 km/h 61 % 0.00 in /  0 mm
11:02 53.2 °F /  11.8 °C 39.7 °F /  4.3 °C 30.32 in /  1026.6 hPa North 1.3 mph /  2.1 km/h 3.5 mph /  5.6 km/h 60 % 0.00 in /  0 mm
11:07 53.2 °F /  11.8 °C 38.8 °F /  3.8 °C 30.32 in /  1026.6 hPa NNW 2.1 mph /  3.4 km/h 5.8 mph /  9.3 km/h 58 % 0.00 in /  0 mm
11:12 53.3 °F /  11.8 °C 39.3 °F /  4.1 °C 30.32 in /  1026.6 hPa NW 2.7 mph /  4.3 km/h 3.5 mph /  5.6 km/h 59 % 0.00 in /  0 mm
11:17 53.7 °F /  12.1 °C 41.0 °F /  5 °C 30.32 in /  1026.6 hPa NW 1.4 mph /  2.3 km/h 4.6 mph /  7.4 km/h 62 % 0.00 in /  0 mm
11:22 54.3 °F /  12.4 °C 39.4 °F /  4.1 °C 30.32 in /  1026.6 hPa NW 3.8 mph /  6.1 km/h 7.0 mph /  11.3 km/h 57 % 0.00 in /  0 mm
11:27 54.3 °F /  12.4 °C 39.4 °F /  4.1 °C 30.32 in /  1026.6 hPa NNW 2.6 mph /  4.2 km/h 3.5 mph /  5.6 km/h 57 % 0.00 in /  0 mm
11:32 54.4 °F /  12.4 °C 39.5 °F /  4.2 °C 30.32 in /  1026.6 hPa NNW 2.7 mph /  4.3 km/h 6.9 mph /  11.1 km/h 57 % 0.00 in /  0 mm
11:37 54.7 °F /  12.6 °C 40.2 °F /  4.6 °C 30.32 in /  1026.6 hPa NNW 3.3 mph /  5.3 km/h 5.8 mph /  9.3 km/h 58 % 0.00 in /  0 mm
11:42 55.1 °F /  12.8 °C 40.6 °F /  4.8 °C 30.32 in /  1026.6 hPa WNW 2.9 mph /  4.7 km/h 6.9 mph /  11.1 km/h 58 % 0.00 in /  0 mm
11:47 55.9 °F /  13.3 °C 40.9 °F /  4.9 °C 30.32 in /  1026.6 hPa NNW 4.7 mph /  7.6 km/h 8.1 mph /  13 km/h 57 % 0.00 in /  0 mm
11:52 56.3 °F /  13.5 °C 40.3 °F /  4.6 °C 30.31 in /  1026.3 hPa WNW 3.3 mph /  5.3 km/h 6.9 mph /  11.1 km/h 55 % 0.00 in /  0 mm
11:57 56.8 °F /  13.8 °C 41.3 °F /  5.2 °C 30.31 in /  1026.3 hPa WNW 1.5 mph /  2.4 km/h 7.0 mph /  11.3 km/h 56 % 0.00 in /  0 mm
12:02 57.1 °F /  13.9 °C 41.1 °F /  5.1 °C 30.30 in /  1026 hPa NW 2.0 mph /  3.2 km/h 3.5 mph /  5.6 km/h 55 % 0.00 in /  0 mm
12:10 57.4 °F /  14.1 °C 38.9 °F /  3.8 °C 30.30 in /  1026 hPa WNW 4.2 mph /  6.8 km/h 6.0 mph /  9.7 km/h 50 % 0.00 in /  0 mm
12:15 57.2 °F /  14 °C 37.7 °F /  3.2 °C 30.30 in /  1026 hPa WNW 4.4 mph /  7.1 km/h 7.0 mph /  11.3 km/h 48 % 0.00 in /  0 mm
12:20 57.5 °F /  14.2 °C 41.0 °F /  5 °C 30.29 in /  1025.6 hPa NW 2.2 mph /  3.5 km/h 3.5 mph /  5.6 km/h 54 % 0.00 in /  0 mm
12:25 57.8 °F /  14.3 °C 39.3 °F /  4.1 °C 30.29 in /  1025.6 hPa NNE 2.9 mph /  4.7 km/h 3.5 mph /  5.6 km/h 50 % 0.00 in /  0 mm
12:30 58.4 °F /  14.7 °C 40.3 °F /  4.6 °C 30.29 in /  1025.6 hPa North 2.7 mph /  4.3 km/h 4.6 mph /  7.4 km/h 51 % 0.00 in /  0 mm
12:35 58.9 °F /  14.9 °C 40.8 °F /  4.9 °C 30.30 in /  1026 hPa North 3.3 mph /  5.3 km/h 5.0 mph /  8 km/h 51 % 0.00 in /  0 mm
12:40 59.1 °F /  15.1 °C 39.4 °F /  4.1 °C 30.30 in /  1026 hPa NNW 2.3 mph /  3.7 km/h 3.5 mph /  5.6 km/h 48 % 0.00 in /  0 mm
12:45 59.2 °F /  15.1 °C 40.0 °F /  4.4 °C 30.30 in /  1026 hPa NNE 3.1 mph /  5 km/h 6.9 mph /  11.1 km/h 49 % 0.00 in /  0 mm
12:50 59.7 °F /  15.4 °C 39.4 °F /  4.1 °C 30.30 in /  1026 hPa North 3.8 mph /  6.1 km/h 6.9 mph /  11.1 km/h 47 % 0.00 in /  0 mm
12:55 59.8 °F /  15.4 °C 39.0 °F /  3.9 °C 30.30 in /  1026 hPa NNW 4.1 mph /  6.6 km/h 6.9 mph /  11.1 km/h 46 % 0.00 in /  0 mm
13:00 59.9 °F /  15.5 °C 39.6 °F /  4.2 °C 30.29 in /  1025.6 hPa NNW 5.7 mph /  9.2 km/h 8.1 mph /  13 km/h 47 % 0.00 in /  0 mm
13:05 60.2 °F /  15.7 °C 40.4 °F /  4.7 °C 30.29 in /  1025.6 hPa NNW 3.7 mph /  6 km/h 6.0 mph /  9.7 km/h 48 % 0.00 in /  0 mm
13:10 60.2 °F /  15.7 °C 38.8 °F /  3.8 °C 30.29 in /  1025.6 hPa NNW 3.9 mph /  6.3 km/h 6.9 mph /  11.1 km/h 45 % 0.00 in /  0 mm
13:15 60.4 °F /  15.8 °C 40.1 °F /  4.5 °C 30.29 in /  1025.6 hPa WNW 2.6 mph /  4.2 km/h 4.0 mph /  6.4 km/h 47 % 0.00 in /  0 mm
13:20 60.8 °F /  16 °C 40.4 °F /  4.7 °C 30.29 in /  1025.6 hPa WNW 2.7 mph /  4.3 km/h 4.0 mph /  6.4 km/h 47 % 0.00 in /  0 mm
13:25 61.0 °F /  16.1 °C 38.3 °F /  3.5 °C 30.29 in /  1025.6 hPa North 3.4 mph /  5.5 km/h 6.9 mph /  11.1 km/h 43 % 0.00 in /  0 mm
13:30 61.3 °F /  16.3 °C 39.8 °F /  4.3 °C 30.29 in /  1025.6 hPa NW 2.3 mph /  3.7 km/h 5.8 mph /  9.3 km/h 45 % 0.00 in /  0 mm
13:35 61.6 °F /  16.4 °C 38.9 °F /  3.8 °C 30.29 in /  1025.6 hPa NW 1.1 mph /  1.8 km/h 3.5 mph /  5.6 km/h 43 % 0.00 in /  0 mm
13:41 62.1 °F /  16.7 °C 39.9 °F /  4.4 °C 30.29 in /  1025.6 hPa NW 4.1 mph /  6.6 km/h 5.8 mph /  9.3 km/h 44 % 0.00 in /  0 mm
13:46 62.5 °F /  16.9 °C 40.3 °F /  4.6 °C 30.29 in /  1025.6 hPa NNW 3.6 mph /  5.8 km/h 6.9 mph /  11.1 km/h 44 % 0.00 in /  0 mm
13:51 62.8 °F /  17.1 °C 39.4 °F /  4.1 °C 30.29 in /  1025.6 hPa NNW 2.9 mph /  4.7 km/h 5.8 mph /  9.3 km/h 42 % 0.00 in /  0 mm
13:56 63.0 °F /  17.2 °C 40.1 °F /  4.5 °C 30.29 in /  1025.6 hPa North 4.2 mph /  6.8 km/h 5.8 mph /  9.3 km/h 43 % 0.00 in /  0 mm
14:01 63.1 °F /  17.3 °C 38.4 °F /  3.6 °C 30.29 in /  1025.6 hPa WNW 3.7 mph /  6 km/h 7.0 mph /  11.3 km/h 40 % 0.00 in /  0 mm
14:06 63.1 °F /  17.3 °C 39.0 °F /  3.9 °C 30.28 in /  1025.3 hPa NW 4.7 mph /  7.6 km/h 8.1 mph /  13 km/h 41 % 0.00 in /  0 mm
14:11 63.2 °F /  17.3 °C 39.7 °F /  4.3 °C 30.28 in /  1025.3 hPa NW 2.7 mph /  4.3 km/h 5.8 mph /  9.3 km/h 42 % 0.00 in /  0 mm
14:16 63.2 °F /  17.3 °C 37.8 °F /  3.2 °C 30.28 in /  1025.3 hPa WNW 4.8 mph /  7.7 km/h 6.9 mph /  11.1 km/h 39 % 0.00 in /  0 mm
14:21 63.0 °F /  17.2 °C 38.9 °F /  3.8 °C 30.28 in /  1025.3 hPa NW 2.6 mph /  4.2 km/h 3.5 mph /  5.6 km/h 41 % 0.00 in /  0 mm
14:27 63.0 °F /  17.2 °C 37.0 °F /  2.8 °C 30.28 in /  1025.3 hPa North 4.0 mph /  6.4 km/h 5.8 mph /  9.3 km/h 38 % 0.00 in /  0 mm
14:32 63.2 °F /  17.3 °C 40.3 °F /  4.6 °C 30.28 in /  1025.3 hPa WNW 2.8 mph /  4.5 km/h 4.6 mph /  7.4 km/h 43 % 0.00 in /  0 mm
14:37 63.3 °F /  17.4 °C 37.9 °F /  3.3 °C 30.28 in /  1025.3 hPa West 3.8 mph /  6.1 km/h 6.9 mph /  11.1 km/h 39 % 0.00 in /  0 mm
14:42 63.3 °F /  17.4 °C 37.2 °F /  2.9 °C 30.28 in /  1025.3 hPa West 6.7 mph /  10.8 km/h 8.1 mph /  13 km/h 38 % 0.00 in /  0 mm
14:47 63.1 °F /  17.3 °C 36.4 °F /  2.4 °C 30.28 in /  1025.3 hPa North 3.3 mph /  5.3 km/h 5.8 mph /  9.3 km/h 37 % 0.00 in /  0 mm
14:52 63.1 °F /  17.3 °C 39.6 °F /  4.2 °C 30.28 in /  1025.3 hPa North 3.1 mph /  5 km/h 5.0 mph /  8 km/h 42 % 0.00 in /  0 mm
14:57 63.2 °F /  17.3 °C 38.5 °F /  3.6 °C 30.28 in /  1025.3 hPa NW 3.4 mph /  5.5 km/h 5.0 mph /  8 km/h 40 % 0.00 in /  0 mm
15:02 63.1 °F /  17.3 °C 38.4 °F /  3.6 °C 30.28 in /  1025.3 hPa NW 3.2 mph /  5.1 km/h 6.0 mph /  9.7 km/h 40 % 0.00 in /  0 mm
15:07 63.2 °F /  17.3 °C 38.5 °F /  3.6 °C 30.28 in /  1025.3 hPa NW 2.4 mph /  3.9 km/h 3.5 mph /  5.6 km/h 40 % 0.00 in /  0 mm
15:12 63.3 °F /  17.4 °C 37.9 °F /  3.3 °C 30.28 in /  1025.3 hPa NW 3.4 mph /  5.5 km/h 4.0 mph /  6.4 km/h 39 % 0.00 in /  0 mm
15:17 63.6 °F /  17.6 °C 39.5 °F /  4.2 °C 30.28 in /  1025.3 hPa NW 1.8 mph /  2.9 km/h 5.0 mph /  8 km/h 41 % 0.00 in /  0 mm
15:22 63.9 °F /  17.7 °C 39.7 °F /  4.3 °C 30.28 in /  1025.3 hPa NNW 1.0 mph /  1.6 km/h 6.0 mph /  9.7 km/h 41 % 0.00 in /  0 mm
15:27 64.0 °F /  17.8 °C 38.5 °F /  3.6 °C 30.27 in /  1024.9 hPa NNW 3.0 mph /  4.8 km/h 6.0 mph /  9.7 km/h 39 % 0.00 in /  0 mm
15:32 63.9 °F /  17.7 °C 37.7 °F /  3.2 °C 30.27 in /  1024.9 hPa NW 3.0 mph /  4.8 km/h 7.0 mph /  11.3 km/h 38 % 0.00 in /  0 mm
15:37 63.8 °F /  17.7 °C 39.0 °F /  3.9 °C 30.26 in /  1024.6 hPa NW 2.0 mph /  3.2 km/h 5.0 mph /  8 km/h 40 % 0.00 in /  0 mm
15:42 63.9 °F /  17.7 °C 39.7 °F /  4.3 °C 30.26 in /  1024.6 hPa NNW 2.0 mph /  3.2 km/h 6.0 mph /  9.7 km/h 41 % 0.00 in /  0 mm
15:47 63.8 °F /  17.7 °C 37.7 °F /  3.2 °C 30.26 in /  1024.6 hPa NW 2.0 mph /  3.2 km/h 6.0 mph /  9.7 km/h 38 % 0.00 in /  0 mm
15:52 63.8 °F /  17.7 °C 39.6 °F /  4.2 °C 30.26 in /  1024.6 hPa WNW 1.0 mph /  1.6 km/h 5.0 mph /  8 km/h 41 % 0.00 in /  0 mm
15:57 63.8 °F /  17.7 °C 38.4 °F /  3.6 °C 30.26 in /  1024.6 hPa NW 3.3 mph /  5.3 km/h 6.0 mph /  9.7 km/h 39 % 0.00 in /  0 mm
16:02 63.8 °F /  17.7 °C 38.4 °F /  3.6 °C 30.26 in /  1024.6 hPa NW 2.0 mph /  3.2 km/h 7.0 mph /  11.3 km/h 39 % 0.00 in /  0 mm
16:07 63.8 °F /  17.7 °C 37.7 °F /  3.2 °C 30.26 in /  1024.6 hPa NW 3.1 mph /  5 km/h 4.6 mph /  7.4 km/h 38 % 0.00 in /  0 mm
16:12 63.7 °F /  17.6 °C 36.9 °F /  2.7 °C 30.25 in /  1024.3 hPa NNW 2.0 mph /  3.2 km/h 7.0 mph /  11.3 km/h 37 % 0.00 in /  0 mm
16:17 63.5 °F /  17.5 °C 38.1 °F /  3.4 °C 30.25 in /  1024.3 hPa NNW 2.0 mph /  3.2 km/h 5.0 mph /  8 km/h 39 % 0.00 in /  0 mm
16:22 63.3 °F /  17.4 °C 38.6 °F /  3.7 °C 30.25 in /  1024.3 hPa NNW 6.0 mph /  9.7 km/h 9.0 mph /  14.5 km/h 40 % 0.00 in /  0 mm
16:27 63.3 °F /  17.4 °C 39.8 °F /  4.3 °C 30.25 in /  1024.3 hPa NW 3.0 mph /  4.8 km/h 7.0 mph /  11.3 km/h 42 % 0.00 in /  0 mm
16:32 63.1 °F /  17.3 °C 39.6 °F /  4.2 °C 30.25 in /  1024.3 hPa WNW 2.0 mph /  3.2 km/h 7.0 mph /  11.3 km/h 42 % 0.00 in /  0 mm
16:37 63.0 °F /  17.2 °C 37.6 °F /  3.1 °C 30.25 in /  1024.3 hPa NW 5.0 mph /  8 km/h 6.0 mph /  9.7 km/h 39 % 0.00 in /  0 mm
16:42 63.1 °F /  17.3 °C 37.7 °F /  3.2 °C 30.25 in /  1024.3 hPa NW 3.0 mph /  4.8 km/h 8.0 mph /  12.9 km/h 39 % 0.00 in /  0 mm
16:47 63.2 °F /  17.3 °C 37.8 °F /  3.2 °C 30.25 in /  1024.3 hPa NW 3.0 mph /  4.8 km/h 9.0 mph /  14.5 km/h 39 % 0.00 in /  0 mm
16:52 63.4 °F /  17.4 °C 36.6 °F /  2.6 °C 30.26 in /  1024.6 hPa NW 3.0 mph /  4.8 km/h 8.0 mph /  12.9 km/h 37 % 0.00 in /  0 mm
16:54 63.3 °F /  17.4 °C 37.2 °F /  2.9 °C 30.25 in /  1024.3 hPa NW 2.9 mph /  4.7 km/h 5.8 mph /  9.3 km/h 38 % 0.00 in /  0 mm
16:59 63.1 °F /  17.3 °C 36.4 °F /  2.4 °C 30.26 in /  1024.6 hPa WNW 1.8 mph /  2.9 km/h 3.5 mph /  5.6 km/h 37 % 0.00 in /  0 mm
17:04 62.7 °F /  17.1 °C 36.7 °F /  2.6 °C 30.25 in /  1024.3 hPa WNW 3.3 mph /  5.3 km/h 5.0 mph /  8 km/h 38 % 0.00 in /  0 mm
17:09 62.3 °F /  16.8 °C 37.7 °F /  3.2 °C 30.25 in /  1024.3 hPa NNW 0.6 mph /  1 km/h 3.5 mph /  5.6 km/h 40 % 0.00 in /  0 mm
17:14 62.1 °F /  16.7 °C 36.8 °F /  2.7 °C 30.26 in /  1024.6 hPa NW 3.1 mph /  5 km/h 4.6 mph /  7.4 km/h 39 % 0.00 in /  0 mm
17:19 62.0 °F /  16.7 °C 38.0 °F /  3.3 °C 30.26 in /  1024.6 hPa NNW 0.3 mph /  0.5 km/h 3.5 mph /  5.6 km/h 41 % 0.00 in /  0 mm
17:24 61.9 °F /  16.6 °C 37.3 °F /  2.9 °C 30.26 in /  1024.6 hPa WNW 2.1 mph /  3.4 km/h 4.0 mph /  6.4 km/h 40 % 0.00 in /  0 mm
17:29 61.8 °F /  16.6 °C 37.2 °F /  2.9 °C 30.26 in /  1024.6 hPa SW 3.1 mph /  5 km/h 4.6 mph /  7.4 km/h 40 % 0.00 in /  0 mm
17:34 61.6 °F /  16.4 °C 38.3 °F /  3.5 °C 30.26 in /  1024.6 hPa WNW 1.7 mph /  2.7 km/h 3.0 mph /  4.8 km/h 42 % 0.00 in /  0 mm
17:39 61.3 °F /  16.3 °C 36.8 °F /  2.7 °C 30.26 in /  1024.6 hPa WNW 1.3 mph /  2.1 km/h 5.0 mph /  8 km/h 40 % 0.00 in /  0 mm
17:44 61.1 °F /  16.2 °C 37.2 °F /  2.9 °C 30.26 in /  1024.6 hPa West 1.2 mph /  1.9 km/h 3.0 mph /  4.8 km/h 41 % 0.00 in /  0 mm
17:49 60.8 °F /  16 °C 38.1 °F /  3.4 °C 30.26 in /  1024.6 hPa West 0.4 mph /  0.6 km/h 2.0 mph /  3.2 km/h 43 % 0.00 in /  0 mm
17:54 60.6 °F /  15.9 °C 38.6 °F /  3.7 °C 30.26 in /  1024.6 hPa WNW 1.1 mph /  1.8 km/h 2.3 mph /  3.7 km/h 44 % 0.00 in /  0 mm
17:59 60.4 °F /  15.8 °C 38.4 °F /  3.6 °C 30.26 in /  1024.6 hPa North 0.5 mph /  0.8 km/h 2.3 mph /  3.7 km/h 44 % 0.00 in /  0 mm
18:04 60.2 °F /  15.7 °C 38.8 °F /  3.8 °C 30.26 in /  1024.6 hPa NW 0.6 mph /  1 km/h 3.5 mph /  5.6 km/h 45 % 0.00 in /  0 mm
18:09 60.0 °F /  15.6 °C 39.1 °F /  3.9 °C 30.26 in /  1024.6 hPa NW 0.7 mph /  1.1 km/h 2.3 mph /  3.7 km/h 46 % 0.00 in /  0 mm
18:14 59.9 °F /  15.5 °C 38.5 °F /  3.6 °C 30.26 in /  1024.6 hPa North 2.3 mph /  3.7 km/h 5.8 mph /  9.3 km/h 45 % 0.00 in /  0 mm
18:19 59.5 °F /  15.3 °C 38.1 °F /  3.4 °C 30.26 in /  1024.6 hPa North 2.5 mph /  4 km/h 7.0 mph /  11.3 km/h 45 % 0.00 in /  0 mm
18:24 59.2 °F /  15.1 °C 37.3 °F /  2.9 °C 30.26 in /  1024.6 hPa North 3.7 mph /  6 km/h 4.6 mph /  7.4 km/h 44 % 0.00 in /  0 mm
18:29 58.9 °F /  14.9 °C 37.6 °F /  3.1 °C 30.26 in /  1024.6 hPa NNE 4.5 mph /  7.2 km/h 5.8 mph /  9.3 km/h 45 % 0.00 in /  0 mm
18:34 58.7 °F /  14.8 °C 36.8 °F /  2.7 °C 30.26 in /  1024.6 hPa NNW 4.3 mph /  6.9 km/h 8.1 mph /  13 km/h 44 % 0.00 in /  0 mm
18:39 58.5 °F /  14.7 °C 37.8 °F /  3.2 °C 30.26 in /  1024.6 hPa NNE 2.2 mph /  3.5 km/h 7.0 mph /  11.3 km/h 46 % 0.00 in /  0 mm
18:44 58.4 °F /  14.7 °C 37.7 °F /  3.2 °C 30.26 in /  1024.6 hPa NNW 2.0 mph /  3.2 km/h 3.5 mph /  5.6 km/h 46 % 0.00 in /  0 mm
18:49 58.2 °F /  14.6 °C 37.5 °F /  3.1 °C 30.27 in /  1024.9 hPa NNW 3.9 mph /  6.3 km/h 6.0 mph /  9.7 km/h 46 % 0.00 in /  0 mm
18:54 58.1 °F /  14.5 °C 39.0 °F /  3.9 °C 30.27 in /  1024.9 hPa NE 2.1 mph /  3.4 km/h 3.5 mph /  5.6 km/h 49 % 0.00 in /  0 mm
18:59 57.8 °F /  14.3 °C 41.3 °F /  5.2 °C 30.27 in /  1024.9 hPa NNE 2.9 mph /  4.7 km/h 4.6 mph /  7.4 km/h 54 % 0.00 in /  0 mm
19:05 57.6 °F /  14.2 °C 41.5 °F /  5.3 °C 30.27 in /  1024.9 hPa NNE 0.3 mph /  0.5 km/h 2.3 mph /  3.7 km/h 55 % 0.00 in /  0 mm
19:10 57.3 °F /  14.1 °C 41.7 °F /  5.4 °C 30.27 in /  1024.9 hPa ENE 1.7 mph /  2.7 km/h 3.5 mph /  5.6 km/h 56 % 0.00 in /  0 mm
19:15 56.9 °F /  13.8 °C 41.8 °F /  5.4 °C 30.27 in /  1024.9 hPa ENE 1.5 mph /  2.4 km/h 2.3 mph /  3.7 km/h 57 % 0.00 in /  0 mm
19:20 56.5 °F /  13.6 °C 42.3 °F /  5.7 °C 30.28 in /  1025.3 hPa Calm     59 % 0.00 in /  0 mm
19:25 56.3 °F /  13.5 °C 42.1 °F /  5.6 °C 30.28 in /  1025.3 hPa ENE 0.4 mph /  0.6 km/h 2.0 mph /  3.2 km/h 59 % 0.00 in /  0 mm
19:30 56.0 °F /  13.3 °C 41.9 °F /  5.5 °C 30.28 in /  1025.3 hPa Calm     59 % 0.00 in /  0 mm
19:35 55.8 °F /  13.2 °C 41.2 °F /  5.1 °C 30.28 in /  1025.3 hPa Calm   1.2 mph /  1.9 km/h 58 % 0.00 in /  0 mm
19:40 55.6 °F /  13.1 °C 41.0 °F /  5 °C 30.29 in /  1025.6 hPa Calm     58 % 0.00 in /  0 mm
19:45 55.3 °F /  12.9 °C 40.8 °F /  4.9 °C 30.29 in /  1025.6 hPa North 0.9 mph /  1.4 km/h 4.0 mph /  6.4 km/h 58 % 0.00 in /  0 mm
19:50 55.1 °F /  12.8 °C 40.6 °F /  4.8 °C 30.29 in /  1025.6 hPa NNE 2.9 mph /  4.7 km/h 4.6 mph /  7.4 km/h 58 % 0.00 in /  0 mm
19:55 54.9 °F /  12.7 °C 40.4 °F /  4.7 °C 30.29 in /  1025.6 hPa NNE 2.4 mph /  3.9 km/h 5.0 mph /  8 km/h 58 % 0.00 in /  0 mm
20:00 54.7 °F /  12.6 °C 39.3 °F /  4.1 °C 30.29 in /  1025.6 hPa North 3.7 mph /  6 km/h 4.6 mph /  7.4 km/h 56 % 0.00 in /  0 mm
20:05 54.6 °F /  12.6 °C 38.7 °F /  3.7 °C 30.29 in /  1025.6 hPa NNE 2.9 mph /  4.7 km/h 3.5 mph /  5.6 km/h 55 % 0.00 in /  0 mm
20:10 54.5 °F /  12.5 °C 39.1 °F /  3.9 °C 30.30 in /  1026 hPa NNE 1.5 mph /  2.4 km/h 3.5 mph /  5.6 km/h 56 % 0.00 in /  0 mm
20:15 54.5 °F /  12.5 °C 39.6 °F /  4.2 °C 30.30 in /  1026 hPa NNE 2.2 mph /  3.5 km/h 4.6 mph /  7.4 km/h 57 % 0.00 in /  0 mm
20:20 54.4 °F /  12.4 °C 39.9 °F /  4.4 °C 30.30 in /  1026 hPa NNE 2.8 mph /  4.5 km/h 5.8 mph /  9.3 km/h 58 % 0.00 in /  0 mm
20:25 54.4 °F /  12.4 °C 40.4 °F /  4.7 °C 30.30 in /  1026 hPa NNE 1.7 mph /  2.7 km/h 3.5 mph /  5.6 km/h 59 % 0.00 in /  0 mm
20:30 54.3 °F /  12.4 °C 40.7 °F /  4.8 °C 30.30 in /  1026 hPa NNE 1.9 mph /  3.1 km/h 3.5 mph /  5.6 km/h 60 % 0.00 in /  0 mm
20:35 54.2 °F /  12.3 °C 41.0 °F /  5 °C 30.31 in /  1026.3 hPa NNE 0.2 mph /  0.3 km/h 3.5 mph /  5.6 km/h 61 % 0.00 in /  0 mm
20:40 54.1 °F /  12.3 °C 40.9 °F /  4.9 °C 30.31 in /  1026.3 hPa NE 0.6 mph /  1 km/h 1.0 mph /  1.6 km/h 61 % 0.00 in /  0 mm
20:45 53.9 °F /  12.2 °C 41.2 °F /  5.1 °C 30.31 in /  1026.3 hPa NNE 3.3 mph /  5.3 km/h 5.8 mph /  9.3 km/h 62 % 0.00 in /  0 mm
20:50 53.6 °F /  12 °C 40.0 °F /  4.4 °C 30.31 in /  1026.3 hPa NNE 4.6 mph /  7.4 km/h 6.9 mph /  11.1 km/h 60 % 0.00 in /  0 mm
20:55 53.4 °F /  11.9 °C 38.5 °F /  3.6 °C 30.31 in /  1026.3 hPa NNE 4.1 mph /  6.6 km/h 11.5 mph /  18.5 km/h 57 % 0.00 in /  0 mm
21:00 53.3 °F /  11.8 °C 38.4 °F /  3.6 °C 30.31 in /  1026.3 hPa NNE 5.0 mph /  8 km/h 9.2 mph /  14.8 km/h 57 % 0.00 in /  0 mm
21:05 53.2 °F /  11.8 °C 38.8 °F /  3.8 °C 30.31 in /  1026.3 hPa North 5.5 mph /  8.9 km/h 7.0 mph /  11.3 km/h 58 % 0.00 in /  0 mm
21:10 53.2 °F /  11.8 °C 38.4 °F /  3.6 °C 30.31 in /  1026.3 hPa North 5.4 mph /  8.7 km/h 6.9 mph /  11.1 km/h 57 % 0.00 in /  0 mm
21:15 53.2 °F /  11.8 °C 37.4 °F /  3 °C 30.31 in /  1026.3 hPa North 6.9 mph /  11.1 km/h 10.4 mph /  16.7 km/h 55 % 0.00 in /  0 mm
21:20 53.3 °F /  11.8 °C 37.1 °F /  2.8 °C 30.31 in /  1026.3 hPa NNE 4.4 mph /  7.1 km/h 8.1 mph /  13 km/h 54 % 0.00 in /  0 mm
21:25 53.4 °F /  11.9 °C 37.6 °F /  3.1 °C 30.31 in /  1026.3 hPa North 5.1 mph /  8.2 km/h 5.8 mph /  9.3 km/h 55 % 0.00 in /  0 mm
21:30 53.4 °F /  11.9 °C 38.1 °F /  3.4 °C 30.31 in /  1026.3 hPa NNE 5.5 mph /  8.9 km/h 6.9 mph /  11.1 km/h 56 % 0.00 in /  0 mm
21:36 53.3 °F /  11.8 °C 38.4 °F /  3.6 °C 30.31 in /  1026.3 hPa NE 4.5 mph /  7.2 km/h 6.9 mph /  11.1 km/h 57 % 0.00 in /  0 mm
21:41 53.2 °F /  11.8 °C 39.2 °F /  4 °C 30.31 in /  1026.3 hPa NNE 3.9 mph /  6.3 km/h 5.0 mph /  8 km/h 59 % 0.00 in /  0 mm
21:46 53.1 °F /  11.7 °C 39.6 °F /  4.2 °C 30.31 in /  1026.3 hPa NNE 0.4 mph /  0.6 km/h 1.2 mph /  1.9 km/h 60 % 0.00 in /  0 mm
21:51 53.0 °F /  11.7 °C 40.7 °F /  4.8 °C 30.31 in /  1026.3 hPa NNE 0.4 mph /  0.6 km/h 2.0 mph /  3.2 km/h 63 % 0.00 in /  0 mm
21:56 52.8 °F /  11.6 °C 40.5 °F /  4.7 °C 30.31 in /  1026.3 hPa NNE 1.9 mph /  3.1 km/h 2.3 mph /  3.7 km/h 63 % 0.00 in /  0 mm
22:01 52.5 °F /  11.4 °C 40.3 °F /  4.6 °C 30.31 in /  1026.3 hPa NNE 0.1 mph /  0.2 km/h 2.3 mph /  3.7 km/h 63 % 0.00 in /  0 mm
22:06 52.3 °F /  11.3 °C 40.1 °F /  4.5 °C 30.31 in /  1026.3 hPa Calm     63 % 0.00 in /  0 mm
22:11 52.1 °F /  11.2 °C 40.3 °F /  4.6 °C 30.31 in /  1026.3 hPa Calm     64 % 0.00 in /  0 mm
22:16 51.9 °F /  11.1 °C 39.7 °F /  4.3 °C 30.31 in /  1026.3 hPa NNE 0.4 mph /  0.6 km/h 1.2 mph /  1.9 km/h 63 % 0.00 in /  0 mm
22:21 51.6 °F /  10.9 °C 39.4 °F /  4.1 °C 30.32 in /  1026.6 hPa Calm     63 % 0.00 in /  0 mm
22:26 51.4 °F /  10.8 °C 39.2 °F /  4 °C 30.32 in /  1026.6 hPa Calm     63 % 0.00 in /  0 mm
22:31 51.2 °F /  10.7 °C 39.0 °F /  3.9 °C 30.32 in /  1026.6 hPa Calm     63 % 0.00 in /  0 mm
22:36 51.0 °F /  10.6 °C 39.2 °F /  4 °C 30.32 in /  1026.6 hPa Calm     64 % 0.00 in /  0 mm
22:41 50.8 °F /  10.4 °C 39.5 °F /  4.2 °C 30.32 in /  1026.6 hPa Calm     65 % 0.00 in /  0 mm
22:46 50.6 °F /  10.3 °C 38.9 °F /  3.8 °C 30.32 in /  1026.6 hPa Calm     64 % 0.00 in /  0 mm
22:51 50.4 °F /  10.2 °C 39.1 °F /  3.9 °C 30.32 in /  1026.6 hPa Calm     65 % 0.00 in /  0 mm
22:56 50.3 °F /  10.2 °C 39.0 °F /  3.9 °C 30.32 in /  1026.6 hPa Calm     65 % 0.00 in /  0 mm
23:01 50.1 °F /  10.1 °C 38.4 °F /  3.6 °C 30.32 in /  1026.6 hPa ENE 0.1 mph /  0.2 km/h 1.2 mph /  1.9 km/h 64 % 0.00 in /  0 mm
23:06 50.0 °F /  10 °C 37.5 °F /  3.1 °C 30.32 in /  1026.6 hPa Calm   2.3 mph /  3.7 km/h 62 % 0.00 in /  0 mm
23:11 49.9 °F /  9.9 °C 37.4 °F /  3 °C 30.32 in /  1026.6 hPa Calm     62 % 0.00 in /  0 mm
23:16 49.8 °F /  9.9 °C 37.7 °F /  3.2 °C 30.32 in /  1026.6 hPa Calm     63 % 0.00 in /  0 mm
23:21 49.7 °F /  9.8 °C 38.0 °F /  3.3 °C 30.32 in /  1026.6 hPa Calm     64 % 0.00 in /  0 mm
23:26 49.6 °F /  9.8 °C 37.9 °F /  3.3 °C 30.32 in /  1026.6 hPa Calm     64 % 0.00 in /  0 mm
23:28 49.6 °F /  9.8 °C 37.9 °F /  3.3 °C 30.33 in /  1027 hPa Calm     64 % 0.00 in /  0 mm
23:33 49.4 °F /  9.7 °C 37.7 °F /  3.2 °C 30.33 in /  1027 hPa Calm   1.0 mph /  1.6 km/h 64 % 0.00 in /  0 mm
23:38 49.2 °F /  9.6 °C 37.1 °F /  2.8 °C 30.33 in /  1027 hPa NE 0.1 mph /  0.2 km/h 1.2 mph /  1.9 km/h 63 % 0.00 in /  0 mm
23:43 49.1 °F /  9.5 °C 36.2 °F /  2.3 °C 30.33 in /  1027 hPa Calm   1.2 mph /  1.9 km/h 61 % 0.00 in /  0 mm
23:48 49.0 °F /  9.4 °C 35.7 °F /  2.1 °C 30.33 in /  1027 hPa Calm     60 % 0.00 in /  0 mm
23:53 48.8 °F /  9.3 °C 35.5 °F /  1.9 °C 30.33 in /  1027 hPa Calm     60 % 0.00 in /  0 mm
23:58 48.8 °F /  9.3 °C 35.5 °F /  1.9 °C 30.34 in /  1027.3 hPa Calm     60 % 0.00 in /  0 mm
Crab Meadow Weather
Compliments of Weather Underground - 3 mb

Script developed by  Jim McMurry - jmcmurry@mwt.net Adapted for the template by  Wim van der Kuil - Leuven-Template.eu

Weather Terms: Advisory - An advisory is issued when a hazardous weather or hydrologic event is occurring, imminent or likely. Advisories are for less serious conditions than warnings, that cause significant inconvenience and if caution is not exercised, could lead to situations that may threaten life or property.